sensor_id;sensor_type;location;lat;lon;timestamp;temperature;humidity
55064;DHT22;40963;52.168;21.296;2022-08-11T00:01:14;13.20;99.90
55064;DHT22;40963;52.168;21.296;2022-08-11T00:03:46;13.20;99.90
55064;DHT22;40963;52.168;21.296;2022-08-11T00:06:12;13.20;99.90
55064;DHT22;40963;52.168;21.296;2022-08-11T00:08:41;13.20;99.90
55064;DHT22;40963;52.168;21.296;2022-08-11T00:11:09;13.10;99.90
55064;DHT22;40963;52.168;21.296;2022-08-11T00:13:41;13.10;99.90
55064;DHT22;40963;52.168;21.296;2022-08-11T00:16:16;13.10;99.90
55064;DHT22;40963;52.168;21.296;2022-08-11T00:18:44;13.00;99.90
55064;DHT22;40963;52.168;21.296;2022-08-11T00:21:14;13.10;99.90
55064;DHT22;40963;52.168;21.296;2022-08-11T00:23:46;13.00;99.90
55064;DHT22;40963;52.168;21.296;2022-08-11T00:26:17;13.00;99.90
55064;DHT22;40963;52.168;21.296;2022-08-11T00:28:44;13.10;99.90
55064;DHT22;40963;52.168;21.296;2022-08-11T00:31:21;13.00;99.90
55064;DHT22;40963;52.168;21.296;2022-08-11T00:33:48;13.00;99.90
55064;DHT22;40963;52.168;21.296;2022-08-11T00:36:16;13.00;99.90
55064;DHT22;40963;52.168;21.296;2022-08-11T00:38:44;13.00;99.90
55064;DHT22;40963;52.168;21.296;2022-08-11T00:41:27;13.00;99.90
55064;DHT22;40963;52.168;21.296;2022-08-11T00:44:15;12.90;99.90
55064;DHT22;40963;52.168;21.296;2022-08-11T00:50:18;12.90;99.90
55064;DHT22;40963;52.168;21.296;2022-08-11T01:06:03;12.70;99.90
55064;DHT22;40963;52.168;21.296;2022-08-11T01:09:05;12.70;99.90
55064;DHT22;40963;52.168;21.296;2022-08-11T01:12:04;12.70;99.90
55064;DHT22;40963;52.168;21.296;2022-08-11T01:32:06;12.60;99.90
55064;DHT22;40963;52.168;21.296;2022-08-11T01:40:29;12.60;99.90
55064;DHT22;40963;52.168;21.296;2022-08-11T01:46:31;12.50;99.90
55064;DHT22;40963;52.168;21.296;2022-08-11T01:52:21;12.50;99.90
55064;DHT22;40963;52.168;21.296;2022-08-11T02:00:20;12.40;99.90
55064;DHT22;40963;52.168;21.296;2022-08-11T02:02:56;12.40;99.90
55064;DHT22;40963;52.168;21.296;2022-08-11T02:25:45;12.20;99.90
55064;DHT22;40963;52.168;21.296;2022-08-11T02:34:47;12.00;99.90
55064;DHT22;40963;52.168;21.296;2022-08-11T03:05:52;11.90;99.90
55064;DHT22;40963;52.168;21.296;2022-08-11T03:11:11;11.90;99.90
55064;DHT22;40963;52.168;21.296;2022-08-11T03:16:54;11.90;99.90
55064;DHT22;40963;52.168;21.296;2022-08-11T03:22:31;11.90;99.90
55064;DHT22;40963;52.168;21.296;2022-08-11T03:27:51;11.90;99.90
55064;DHT22;40963;52.168;21.296;2022-08-11T03:33:28;11.90;99.90
55064;DHT22;40963;52.168;21.296;2022-08-11T03:36:28;11.90;99.90
55064;DHT22;40963;52.168;21.296;2022-08-11T03:41:45;12.00;99.90
55064;DHT22;40963;52.168;21.296;2022-08-11T03:47:21;11.90;99.90
55064;DHT22;40963;52.168;21.296;2022-08-11T03:52:52;12.00;99.90
55064;DHT22;40963;52.168;21.296;2022-08-11T04:04:08;12.00;99.90
55064;DHT22;40963;52.168;21.296;2022-08-11T04:19:06;12.20;99.90
55064;DHT22;40963;52.168;21.296;2022-08-11T04:39:33;12.70;99.90
55064;DHT22;40963;52.168;21.296;2022-08-11T04:51:31;13.10;99.90
55064;DHT22;40963;52.168;21.296;2022-08-11T04:57:34;13.40;99.90
55064;DHT22;40963;52.168;21.296;2022-08-11T05:00:29;13.50;99.90
55064;DHT22;40963;52.168;21.296;2022-08-11T05:04:03;13.60;99.90
55064;DHT22;40963;52.168;21.296;2022-08-11T05:07:07;13.70;99.90
55064;DHT22;40963;52.168;21.296;2022-08-11T05:12:41;14.00;99.90
55064;DHT22;40963;52.168;21.296;2022-08-11T05:15:12;14.10;99.90
55064;DHT22;40963;52.168;21.296;2022-08-11T05:18:22;14.20;99.90
55064;DHT22;40963;52.168;21.296;2022-08-11T05:21:09;14.30;99.90
55064;DHT22;40963;52.168;21.296;2022-08-11T05:24:19;14.50;99.90
55064;DHT22;40963;52.168;21.296;2022-08-11T05:27:04;14.60;99.90
55064;DHT22;40963;52.168;21.296;2022-08-11T05:30:03;14.70;99.90
55064;DHT22;40963;52.168;21.296;2022-08-11T05:33:08;14.90;99.90
55064;DHT22;40963;52.168;21.296;2022-08-11T05:36:10;15.00;99.90
55064;DHT22;40963;52.168;21.296;2022-08-11T05:38:37;15.10;99.90
55064;DHT22;40963;52.168;21.296;2022-08-11T05:41:24;15.30;99.90
55064;DHT22;40963;52.168;21.296;2022-08-11T05:44:17;15.40;99.90
55064;DHT22;40963;52.168;21.296;2022-08-11T05:47:02;15.50;99.90
55064;DHT22;40963;52.168;21.296;2022-08-11T05:49:49;15.60;99.90
55064;DHT22;40963;52.168;21.296;2022-08-11T05:52:35;15.70;99.90
55064;DHT22;40963;52.168;21.296;2022-08-11T05:55:20;15.80;99.90
55064;DHT22;40963;52.168;21.296;2022-08-11T05:58:07;16.00;99.90
55064;DHT22;40963;52.168;21.296;2022-08-11T06:00:45;16.10;99.90
55064;DHT22;40963;52.168;21.296;2022-08-11T06:03:19;16.20;99.90
55064;DHT22;40963;52.168;21.296;2022-08-11T06:05:46;16.30;99.90
55064;DHT22;40963;52.168;21.296;2022-08-11T06:08:12;16.40;99.90
55064;DHT22;40963;52.168;21.296;2022-08-11T06:10:40;16.50;99.90
55064;DHT22;40963;52.168;21.296;2022-08-11T06:13:07;16.70;99.90
55064;DHT22;40963;52.168;21.296;2022-08-11T06:15:43;16.80;99.90
55064;DHT22;40963;52.168;21.296;2022-08-11T06:18:10;17.00;99.90
55064;DHT22;40963;52.168;21.296;2022-08-11T06:20:54;17.10;99.90
55064;DHT22;40963;52.168;21.296;2022-08-11T06:23:21;17.20;99.90
55064;DHT22;40963;52.168;21.296;2022-08-11T06:25:50;17.30;99.90
55064;DHT22;40963;52.168;21.296;2022-08-11T06:28:16;17.40;99.90
55064;DHT22;40963;52.168;21.296;2022-08-11T06:30:45;17.40;99.90
55064;DHT22;40963;52.168;21.296;2022-08-11T06:41:19;17.80;99.90
55064;DHT22;40963;52.168;21.296;2022-08-11T06:47:05;18.10;99.90
55064;DHT22;40963;52.168;21.296;2022-08-11T06:49:36;18.20;99.90
55064;DHT22;40963;52.168;21.296;2022-08-11T06:52:30;18.40;99.90
55064;DHT22;40963;52.168;21.296;2022-08-11T06:55:06;18.50;99.90
55064;DHT22;40963;52.168;21.296;2022-08-11T06:57:35;18.60;99.90
55064;DHT22;40963;52.168;21.296;2022-08-11T07:00:20;18.70;99.60
55064;DHT22;40963;52.168;21.296;2022-08-11T07:03:10;18.80;99.30
55064;DHT22;40963;52.168;21.296;2022-08-11T07:13:51;19.40;97.90
55064;DHT22;40963;52.168;21.296;2022-08-11T07:16:38;19.40;97.40
55064;DHT22;40963;52.168;21.296;2022-08-11T07:19:07;19.50;97.00
55064;DHT22;40963;52.168;21.296;2022-08-11T07:21:52;19.60;96.70
55064;DHT22;40963;52.168;21.296;2022-08-11T07:24:52;19.70;96.60
55064;DHT22;40963;52.168;21.296;2022-08-11T07:27:43;19.90;95.90
55064;DHT22;40963;52.168;21.296;2022-08-11T07:30:29;19.90;95.70
55064;DHT22;40963;52.168;21.296;2022-08-11T07:32:59;20.10;95.60
55064;DHT22;40963;52.168;21.296;2022-08-11T07:35:41;20.20;95.40
55064;DHT22;40963;52.168;21.296;2022-08-11T07:38:13;20.30;94.90
55064;DHT22;40963;52.168;21.296;2022-08-11T07:40:42;20.40;94.20
55064;DHT22;40963;52.168;21.296;2022-08-11T07:43:09;20.50;94.10
55064;DHT22;40963;52.168;21.296;2022-08-11T07:45:39;20.60;93.20
55064;DHT22;40963;52.168;21.296;2022-08-11T07:48:25;20.70;93.00
55064;DHT22;40963;52.168;21.296;2022-08-11T07:51:09;20.80;92.30
55064;DHT22;40963;52.168;21.296;2022-08-11T07:53:54;20.90;91.10
55064;DHT22;40963;52.168;21.296;2022-08-11T07:56:20;20.90;91.00
55064;DHT22;40963;52.168;21.296;2022-08-11T07:58:46;21.00;90.70
55064;DHT22;40963;52.168;21.296;2022-08-11T08:01:31;21.10;90.50
55064;DHT22;40963;52.168;21.296;2022-08-11T08:04:17;21.20;90.20
55064;DHT22;40963;52.168;21.296;2022-08-11T08:07:05;21.30;89.00
55064;DHT22;40963;52.168;21.296;2022-08-11T08:09:50;21.40;88.00
55064;DHT22;40963;52.168;21.296;2022-08-11T08:12:35;21.40;85.90
55064;DHT22;40963;52.168;21.296;2022-08-11T08:15:20;21.40;86.00
55064;DHT22;40963;52.168;21.296;2022-08-11T08:18:06;21.60;85.30
55064;DHT22;40963;52.168;21.296;2022-08-11T08:20:46;21.70;84.20
55064;DHT22;40963;52.168;21.296;2022-08-11T08:23:14;21.70;83.20
55064;DHT22;40963;52.168;21.296;2022-08-11T08:25:43;21.80;82.30
55064;DHT22;40963;52.168;21.296;2022-08-11T08:28:14;21.90;81.80
55064;DHT22;40963;52.168;21.296;2022-08-11T08:30:41;22.00;81.20
55064;DHT22;40963;52.168;21.296;2022-08-11T08:33:34;22.10;80.50
55064;DHT22;40963;52.168;21.296;2022-08-11T08:36:03;22.20;79.40
55064;DHT22;40963;52.168;21.296;2022-08-11T08:38:49;22.30;79.30
55064;DHT22;40963;52.168;21.296;2022-08-11T08:41:23;22.50;79.00
55064;DHT22;40963;52.168;21.296;2022-08-11T08:43:54;22.50;76.60
55064;DHT22;40963;52.168;21.296;2022-08-11T08:46:25;22.60;75.90
55064;DHT22;40963;52.168;21.296;2022-08-11T08:48:53;22.60;75.00
55064;DHT22;40963;52.168;21.296;2022-08-11T08:51:20;22.60;73.80
55064;DHT22;40963;52.168;21.296;2022-08-11T08:56:33;22.70;72.30
55064;DHT22;40963;52.168;21.296;2022-08-11T08:59:01;22.80;70.90
55064;DHT22;40963;52.168;21.296;2022-08-11T09:01:35;22.90;71.50
55064;DHT22;40963;52.168;21.296;2022-08-11T09:04:05;22.90;71.40
55064;DHT22;40963;52.168;21.296;2022-08-11T09:06:32;23.00;70.70
55064;DHT22;40963;52.168;21.296;2022-08-11T09:08:59;23.10;70.40
55064;DHT22;40963;52.168;21.296;2022-08-11T09:11:25;23.20;70.20
55064;DHT22;40963;52.168;21.296;2022-08-11T09:14:09;23.30;69.90
55064;DHT22;40963;52.168;21.296;2022-08-11T09:16:36;23.40;68.50
55064;DHT22;40963;52.168;21.296;2022-08-11T09:19:03;23.50;67.60
55064;DHT22;40963;52.168;21.296;2022-08-11T09:21:30;23.50;67.10
55064;DHT22;40963;52.168;21.296;2022-08-11T09:23:57;23.60;67.30
55064;DHT22;40963;52.168;21.296;2022-08-11T09:26:43;23.70;67.50
55064;DHT22;40963;52.168;21.296;2022-08-11T09:29:26;23.60;65.30
55064;DHT22;40963;52.168;21.296;2022-08-11T09:31:53;23.60;65.30
55064;DHT22;40963;52.168;21.296;2022-08-11T09:34:21;23.60;65.70
55064;DHT22;40963;52.168;21.296;2022-08-11T09:36:47;23.70;65.50
55064;DHT22;40963;52.168;21.296;2022-08-11T09:39:35;23.80;64.70
55064;DHT22;40963;52.168;21.296;2022-08-11T09:42:20;24.00;64.10
55064;DHT22;40963;52.168;21.296;2022-08-11T09:44:48;24.10;63.80
55064;DHT22;40963;52.168;21.296;2022-08-11T09:47:23;24.10;63.80
55064;DHT22;40963;52.168;21.296;2022-08-11T09:49:56;24.20;63.50
55064;DHT22;40963;52.168;21.296;2022-08-11T09:52:25;24.20;63.50
55064;DHT22;40963;52.168;21.296;2022-08-11T09:54:52;24.20;62.70
55064;DHT22;40963;52.168;21.296;2022-08-11T09:57:20;24.10;63.10
55064;DHT22;40963;52.168;21.296;2022-08-11T10:00:08;24.10;63.20
55064;DHT22;40963;52.168;21.296;2022-08-11T10:02:40;24.30;62.90
55064;DHT22;40963;52.168;21.296;2022-08-11T10:05:07;24.40;62.30
55064;DHT22;40963;52.168;21.296;2022-08-11T10:07:56;24.50;61.10
55064;DHT22;40963;52.168;21.296;2022-08-11T10:10:22;24.50;60.60
55064;DHT22;40963;52.168;21.296;2022-08-11T10:12:58;24.60;60.30
55064;DHT22;40963;52.168;21.296;2022-08-11T10:15:30;24.70;60.10
55064;DHT22;40963;52.168;21.296;2022-08-11T10:18:18;24.70;59.80
55064;DHT22;40963;52.168;21.296;2022-08-11T10:21:16;24.80;60.20
55064;DHT22;40963;52.168;21.296;2022-08-11T10:23:42;24.80;60.20
55064;DHT22;40963;52.168;21.296;2022-08-11T10:26:28;24.80;59.30
55064;DHT22;40963;52.168;21.296;2022-08-11T10:29:29;24.80;58.60
55064;DHT22;40963;52.168;21.296;2022-08-11T10:32:24;24.70;58.40
55064;DHT22;40963;52.168;21.296;2022-08-11T10:35:09;24.70;59.00
55064;DHT22;40963;52.168;21.296;2022-08-11T10:37:38;24.80;58.20
55064;DHT22;40963;52.168;21.296;2022-08-11T10:40:06;24.70;58.00
55064;DHT22;40963;52.168;21.296;2022-08-11T10:42:33;24.60;57.90
55064;DHT22;40963;52.168;21.296;2022-08-11T10:45:18;24.50;58.10
55064;DHT22;40963;52.168;21.296;2022-08-11T10:48:05;24.20;58.40
55064;DHT22;40963;52.168;21.296;2022-08-11T10:50:31;24.00;58.40
55064;DHT22;40963;52.168;21.296;2022-08-11T10:53:17;23.90;59.00
55064;DHT22;40963;52.168;21.296;2022-08-11T10:56:02;23.80;59.30
55064;DHT22;40963;52.168;21.296;2022-08-11T10:58:47;23.70;59.40
55064;DHT22;40963;52.168;21.296;2022-08-11T11:01:24;23.70;60.20
55064;DHT22;40963;52.168;21.296;2022-08-11T11:03:54;23.80;61.10
55064;DHT22;40963;52.168;21.296;2022-08-11T11:09:07;24.10;60.20
55064;DHT22;40963;52.168;21.296;2022-08-11T11:11:38;24.30;59.80
55064;DHT22;40963;52.168;21.296;2022-08-11T11:14:29;24.40;59.00
55064;DHT22;40963;52.168;21.296;2022-08-11T11:17:14;24.40;58.80
55064;DHT22;40963;52.168;21.296;2022-08-11T11:20:02;24.30;58.20
55064;DHT22;40963;52.168;21.296;2022-08-11T11:22:30;24.20;58.50
55064;DHT22;40963;52.168;21.296;2022-08-11T11:30:22;24.40;59.60
55064;DHT22;40963;52.168;21.296;2022-08-11T11:33:17;24.50;59.70
55064;DHT22;40963;52.168;21.296;2022-08-11T11:36:08;24.40;59.60
55064;DHT22;40963;52.168;21.296;2022-08-11T11:38:36;24.40;59.30
55064;DHT22;40963;52.168;21.296;2022-08-11T11:41:02;24.30;59.90
55064;DHT22;40963;52.168;21.296;2022-08-11T11:43:47;24.20;60.30
55064;DHT22;40963;52.168;21.296;2022-08-11T11:46:13;24.30;60.60
55064;DHT22;40963;52.168;21.296;2022-08-11T11:48:39;24.30;59.70
55064;DHT22;40963;52.168;21.296;2022-08-11T11:51:06;24.40;59.00
55064;DHT22;40963;52.168;21.296;2022-08-11T11:53:32;24.50;58.50
55064;DHT22;40963;52.168;21.296;2022-08-11T11:55:59;24.50;57.90
55064;DHT22;40963;52.168;21.296;2022-08-11T11:58:26;24.50;58.30
55064;DHT22;40963;52.168;21.296;2022-08-11T12:01:12;24.60;58.60
55064;DHT22;40963;52.168;21.296;2022-08-11T12:03:46;24.60;58.60
55064;DHT22;40963;52.168;21.296;2022-08-11T12:06:13;24.70;58.90
55064;DHT22;40963;52.168;21.296;2022-08-11T12:08:41;24.60;58.70
55064;DHT22;40963;52.168;21.296;2022-08-11T12:11:10;24.70;58.90
55064;DHT22;40963;52.168;21.296;2022-08-11T12:13:57;24.70;58.60
55064;DHT22;40963;52.168;21.296;2022-08-11T12:16:24;24.70;57.90
55064;DHT22;40963;52.168;21.296;2022-08-11T12:18:57;24.70;57.70
55064;DHT22;40963;52.168;21.296;2022-08-11T12:21:24;24.80;58.10
55064;DHT22;40963;52.168;21.296;2022-08-11T12:23:51;24.80;58.00
55064;DHT22;40963;52.168;21.296;2022-08-11T12:26:37;25.00;57.90
55064;DHT22;40963;52.168;21.296;2022-08-11T12:29:22;25.00;57.30
55064;DHT22;40963;52.168;21.296;2022-08-11T12:31:55;24.90;56.90
55064;DHT22;40963;52.168;21.296;2022-08-11T12:34:25;24.80;56.80
55064;DHT22;40963;52.168;21.296;2022-08-11T12:36:58;24.70;56.30
55064;DHT22;40963;52.168;21.296;2022-08-11T12:39:27;24.30;56.40
55064;DHT22;40963;52.168;21.296;2022-08-11T12:42:17;24.00;56.70
55064;DHT22;40963;52.168;21.296;2022-08-11T12:45:13;23.50;57.50
55064;DHT22;40963;52.168;21.296;2022-08-11T12:48:10;23.20;59.20
55064;DHT22;40963;52.168;21.296;2022-08-11T12:51:01;22.80;60.60
55064;DHT22;40963;52.168;21.296;2022-08-11T12:54:05;22.50;61.80
55064;DHT22;40963;52.168;21.296;2022-08-11T12:56:40;22.30;62.70
55064;DHT22;40963;52.168;21.296;2022-08-11T12:59:25;22.20;63.50
55064;DHT22;40963;52.168;21.296;2022-08-11T13:02:16;22.10;64.40
55064;DHT22;40963;52.168;21.296;2022-08-11T13:05:07;22.20;65.70
55064;DHT22;40963;52.168;21.296;2022-08-11T13:07:33;22.30;66.60
55064;DHT22;40963;52.168;21.296;2022-08-11T13:10:04;22.30;67.20
55064;DHT22;40963;52.168;21.296;2022-08-11T13:12:31;22.50;68.20
55064;DHT22;40963;52.168;21.296;2022-08-11T13:15:23;22.60;68.60
55064;DHT22;40963;52.168;21.296;2022-08-11T13:17:53;22.90;68.40
55064;DHT22;40963;52.168;21.296;2022-08-11T13:20:23;23.10;67.20
55064;DHT22;40963;52.168;21.296;2022-08-11T13:22:54;23.30;66.70
55064;DHT22;40963;52.168;21.296;2022-08-11T13:25:22;23.30;65.10
55064;DHT22;40963;52.168;21.296;2022-08-11T13:27:50;23.30;65.10
55064;DHT22;40963;52.168;21.296;2022-08-11T13:30:17;23.30;65.20
55064;DHT22;40963;52.168;21.296;2022-08-11T13:33:03;23.20;65.10
55064;DHT22;40963;52.168;21.296;2022-08-11T13:35:33;23.20;65.50
55064;DHT22;40963;52.168;21.296;2022-08-11T13:38:03;23.20;65.90
55064;DHT22;40963;52.168;21.296;2022-08-11T13:40:31;23.20;66.10
55064;DHT22;40963;52.168;21.296;2022-08-11T13:42:57;23.20;66.40
55064;DHT22;40963;52.168;21.296;2022-08-11T13:45:24;23.30;66.60
55064;DHT22;40963;52.168;21.296;2022-08-11T13:47:57;23.30;66.60
55064;DHT22;40963;52.168;21.296;2022-08-11T13:50:24;23.30;66.70
55064;DHT22;40963;52.168;21.296;2022-08-11T13:53:10;23.40;67.30
55064;DHT22;40963;52.168;21.296;2022-08-11T13:55:38;23.40;68.00
55064;DHT22;40963;52.168;21.296;2022-08-11T13:58:05;23.40;68.70
55064;DHT22;40963;52.168;21.296;2022-08-11T14:00:34;23.30;69.20
55064;DHT22;40963;52.168;21.296;2022-08-11T14:03:00;23.20;69.50
55064;DHT22;40963;52.168;21.296;2022-08-11T14:05:36;23.10;69.80
55064;DHT22;40963;52.168;21.296;2022-08-11T14:08:09;22.90;70.00
55064;DHT22;40963;52.168;21.296;2022-08-11T14:10:38;22.80;70.30
55064;DHT22;40963;52.168;21.296;2022-08-11T14:13:13;22.70;70.80
55064;DHT22;40963;52.168;21.296;2022-08-11T14:16:03;22.60;71.30
55064;DHT22;40963;52.168;21.296;2022-08-11T14:18:32;22.60;71.40
55064;DHT22;40963;52.168;21.296;2022-08-11T14:21:00;22.50;71.50
55064;DHT22;40963;52.168;21.296;2022-08-11T14:23:46;22.40;71.60
55064;DHT22;40963;52.168;21.296;2022-08-11T14:26:15;22.40;71.60
55064;DHT22;40963;52.168;21.296;2022-08-11T14:29:00;22.30;71.50
55064;DHT22;40963;52.168;21.296;2022-08-11T14:31:29;22.30;71.50
55064;DHT22;40963;52.168;21.296;2022-08-11T14:34:00;22.30;71.60
55064;DHT22;40963;52.168;21.296;2022-08-11T14:36:30;22.40;71.60
55064;DHT22;40963;52.168;21.296;2022-08-11T14:38:57;22.40;71.20
55064;DHT22;40963;52.168;21.296;2022-08-11T14:41:24;22.50;71.00
55064;DHT22;40963;52.168;21.296;2022-08-11T14:44:08;22.50;70.90
55064;DHT22;40963;52.168;21.296;2022-08-11T14:46:54;22.50;70.60
55064;DHT22;40963;52.168;21.296;2022-08-11T14:49:35;22.60;70.50
55064;DHT22;40963;52.168;21.296;2022-08-11T14:52:03;22.60;70.40
55064;DHT22;40963;52.168;21.296;2022-08-11T14:54:31;22.60;70.30
55064;DHT22;40963;52.168;21.296;2022-08-11T14:57:17;22.60;70.20
55064;DHT22;40963;52.168;21.296;2022-08-11T14:59:45;22.60;70.30
55064;DHT22;40963;52.168;21.296;2022-08-11T15:02:13;22.60;70.80
55064;DHT22;40963;52.168;21.296;2022-08-11T15:05:00;22.60;71.30
55064;DHT22;40963;52.168;21.296;2022-08-11T15:07:27;22.60;71.90
55064;DHT22;40963;52.168;21.296;2022-08-11T15:10:00;22.60;72.30
55064;DHT22;40963;52.168;21.296;2022-08-11T15:12:27;22.60;72.70
55064;DHT22;40963;52.168;21.296;2022-08-11T15:14:53;22.60;72.50
55064;DHT22;40963;52.168;21.296;2022-08-11T15:17:39;22.70;72.30
55064;DHT22;40963;52.168;21.296;2022-08-11T15:20:08;22.70;71.70
55064;DHT22;40963;52.168;21.296;2022-08-11T15:22:53;22.80;71.20
55064;DHT22;40963;52.168;21.296;2022-08-11T15:25:38;22.80;70.40
55064;DHT22;40963;52.168;21.296;2022-08-11T15:28:06;22.80;69.50
55064;DHT22;40963;52.168;21.296;2022-08-11T15:30:54;22.90;69.00
55064;DHT22;40963;52.168;21.296;2022-08-11T15:33:40;23.00;68.10
55064;DHT22;40963;52.168;21.296;2022-08-11T15:36:26;23.00;67.20
55064;DHT22;40963;52.168;21.296;2022-08-11T15:39:20;23.10;66.70
55064;DHT22;40963;52.168;21.296;2022-08-11T15:41:56;23.10;66.10
55064;DHT22;40963;52.168;21.296;2022-08-11T15:44:43;23.10;65.80
55064;DHT22;40963;52.168;21.296;2022-08-11T15:47:47;23.20;65.50
55064;DHT22;40963;52.168;21.296;2022-08-11T15:50:16;23.30;64.80
55064;DHT22;40963;52.168;21.296;2022-08-11T15:52:48;23.30;64.20
55064;DHT22;40963;52.168;21.296;2022-08-11T15:55:17;23.40;63.80
55064;DHT22;40963;52.168;21.296;2022-08-11T15:57:46;23.40;63.50
55064;DHT22;40963;52.168;21.296;2022-08-11T16:00:33;23.40;63.30
55064;DHT22;40963;52.168;21.296;2022-08-11T16:03:18;23.50;63.30
55064;DHT22;40963;52.168;21.296;2022-08-11T16:06:03;23.60;63.40
55064;DHT22;40963;52.168;21.296;2022-08-11T16:08:30;23.60;62.80
55064;DHT22;40963;52.168;21.296;2022-08-11T16:10:57;23.60;62.10
55064;DHT22;40963;52.168;21.296;2022-08-11T16:13:24;23.60;61.30
55064;DHT22;40963;52.168;21.296;2022-08-11T16:15:53;23.60;61.00
55064;DHT22;40963;52.168;21.296;2022-08-11T16:18:43;23.60;60.30
55064;DHT22;40963;52.168;21.296;2022-08-11T16:21:26;23.60;59.70
55064;DHT22;40963;52.168;21.296;2022-08-11T16:23:55;23.60;59.50
55064;DHT22;40963;52.168;21.296;2022-08-11T16:26:23;23.70;59.40
55064;DHT22;40963;52.168;21.296;2022-08-11T16:28:51;23.60;59.30
55064;DHT22;40963;52.168;21.296;2022-08-11T16:31:23;23.70;59.40
55064;DHT22;40963;52.168;21.296;2022-08-11T16:33:49;23.70;59.40
55064;DHT22;40963;52.168;21.296;2022-08-11T16:36:18;23.70;59.30
55064;DHT22;40963;52.168;21.296;2022-08-11T16:39:04;23.70;59.40
55064;DHT22;40963;52.168;21.296;2022-08-11T16:41:32;23.70;59.60
55064;DHT22;40963;52.168;21.296;2022-08-11T16:44:18;23.70;59.80
55064;DHT22;40963;52.168;21.296;2022-08-11T16:47:05;23.70;60.10
55064;DHT22;40963;52.168;21.296;2022-08-11T16:49:34;23.70;60.50
55064;DHT22;40963;52.168;21.296;2022-08-11T16:52:02;23.70;60.90
55064;DHT22;40963;52.168;21.296;2022-08-11T16:54:34;23.70;61.30
55064;DHT22;40963;52.168;21.296;2022-08-11T16:57:02;23.70;61.70
55064;DHT22;40963;52.168;21.296;2022-08-11T16:59:50;23.60;62.00
55064;DHT22;40963;52.168;21.296;2022-08-11T17:02:18;23.60;62.40
55064;DHT22;40963;52.168;21.296;2022-08-11T17:05:16;23.60;63.70
55064;DHT22;40963;52.168;21.296;2022-08-11T17:08:02;23.60;63.60
55064;DHT22;40963;52.168;21.296;2022-08-11T17:10:55;23.60;64.00
55064;DHT22;40963;52.168;21.296;2022-08-11T17:13:46;23.50;64.50
55064;DHT22;40963;52.168;21.296;2022-08-11T17:16:17;23.50;65.10
55064;DHT22;40963;52.168;21.296;2022-08-11T17:23:47;23.40;65.80
55064;DHT22;40963;52.168;21.296;2022-08-11T17:29:37;23.20;66.10
55064;DHT22;40963;52.168;21.296;2022-08-11T17:32:07;23.10;66.40
55064;DHT22;40963;52.168;21.296;2022-08-11T17:34:57;23.10;66.70
55064;DHT22;40963;52.168;21.296;2022-08-11T17:37:42;23.00;67.00
55064;DHT22;40963;52.168;21.296;2022-08-11T17:40:10;23.00;67.30
55064;DHT22;40963;52.168;21.296;2022-08-11T17:42:39;22.90;67.70
55064;DHT22;40963;52.168;21.296;2022-08-11T17:45:25;22.90;68.30
55064;DHT22;40963;52.168;21.296;2022-08-11T17:48:10;22.80;68.70
55064;DHT22;40963;52.168;21.296;2022-08-11T17:50:58;22.70;69.20
55064;DHT22;40963;52.168;21.296;2022-08-11T17:53:27;22.60;70.10
55064;DHT22;40963;52.168;21.296;2022-08-11T17:56:13;22.50;70.80
55064;DHT22;40963;52.168;21.296;2022-08-11T17:59:00;22.40;71.50
55064;DHT22;40963;52.168;21.296;2022-08-11T18:01:46;22.30;72.20
55064;DHT22;40963;52.168;21.296;2022-08-11T18:04:14;22.20;72.70
55064;DHT22;40963;52.168;21.296;2022-08-11T18:06:41;22.10;73.20
55064;DHT22;40963;52.168;21.296;2022-08-11T18:09:16;22.00;74.10
55064;DHT22;40963;52.168;21.296;2022-08-11T18:12:04;22.00;75.10
55064;DHT22;40963;52.168;21.296;2022-08-11T18:14:52;21.90;75.90
55064;DHT22;40963;52.168;21.296;2022-08-11T18:17:37;21.80;77.40
55064;DHT22;40963;52.168;21.296;2022-08-11T18:20:22;21.70;79.40
55064;DHT22;40963;52.168;21.296;2022-08-11T18:23:15;21.70;81.80
55064;DHT22;40963;52.168;21.296;2022-08-11T18:26:03;21.50;82.70
55064;DHT22;40963;52.168;21.296;2022-08-11T18:28:52;21.30;83.80
55064;DHT22;40963;52.168;21.296;2022-08-11T18:31:43;21.30;85.00
55064;DHT22;40963;52.168;21.296;2022-08-11T18:34:32;21.10;86.70
55064;DHT22;40963;52.168;21.296;2022-08-11T18:37:24;21.00;88.30
55064;DHT22;40963;52.168;21.296;2022-08-11T18:40:25;20.90;89.80
55064;DHT22;40963;52.168;21.296;2022-08-11T18:43:11;20.80;90.40
55064;DHT22;40963;52.168;21.296;2022-08-11T18:46:01;20.70;90.90
55064;DHT22;40963;52.168;21.296;2022-08-11T18:48:51;20.60;91.50
55064;DHT22;40963;52.168;21.296;2022-08-11T18:51:37;20.60;91.90
55064;DHT22;40963;52.168;21.296;2022-08-11T18:54:23;20.50;92.50
55064;DHT22;40963;52.168;21.296;2022-08-11T18:57:08;20.40;92.90
55064;DHT22;40963;52.168;21.296;2022-08-11T18:59:54;20.30;93.50
55064;DHT22;40963;52.168;21.296;2022-08-11T19:02:43;20.20;93.80
55064;DHT22;40963;52.168;21.296;2022-08-11T19:05:31;20.20;94.30
55064;DHT22;40963;52.168;21.296;2022-08-11T19:08:17;20.10;94.60
55064;DHT22;40963;52.168;21.296;2022-08-11T19:11:04;20.00;94.90
55064;DHT22;40963;52.168;21.296;2022-08-11T19:13:49;20.00;95.30
55064;DHT22;40963;52.168;21.296;2022-08-11T19:16:35;19.90;95.80
55064;DHT22;40963;52.168;21.296;2022-08-11T19:19:20;19.90;96.20
55064;DHT22;40963;52.168;21.296;2022-08-11T19:22:04;19.80;96.30
55064;DHT22;40963;52.168;21.296;2022-08-11T19:24:50;19.70;96.40
55064;DHT22;40963;52.168;21.296;2022-08-11T19:27:37;19.60;96.80
55064;DHT22;40963;52.168;21.296;2022-08-11T19:30:22;19.60;97.20
55064;DHT22;40963;52.168;21.296;2022-08-11T19:33:07;19.40;97.60
55064;DHT22;40963;52.168;21.296;2022-08-11T19:35:52;19.40;98.00
55064;DHT22;40963;52.168;21.296;2022-08-11T19:38:37;19.30;98.30
55064;DHT22;40963;52.168;21.296;2022-08-11T19:41:23;19.20;98.70
55064;DHT22;40963;52.168;21.296;2022-08-11T19:44:08;19.20;99.10
55064;DHT22;40963;52.168;21.296;2022-08-11T19:46:54;19.10;99.20
55064;DHT22;40963;52.168;21.296;2022-08-11T19:49:39;19.10;99.40
55064;DHT22;40963;52.168;21.296;2022-08-11T19:52:24;19.00;99.60
55064;DHT22;40963;52.168;21.296;2022-08-11T19:55:09;18.90;99.90
55064;DHT22;40963;52.168;21.296;2022-08-11T19:57:54;18.90;99.90
55064;DHT22;40963;52.168;21.296;2022-08-11T20:00:40;18.90;99.90
55064;DHT22;40963;52.168;21.296;2022-08-11T20:03:25;18.90;99.90
55064;DHT22;40963;52.168;21.296;2022-08-11T20:06:13;18.90;99.90